Terminal Aerodrome Forecast
Issued by NWS Wilmington, NC

Home | Current Version | Previous Version | Text Only | Print | Product List | Glossary On
Versions: 1 2 3 4 5 6 7 8 9 10 11 12 13 14 15 16 17 18 19 20
000
FTUS42 KILM 012300
TAFFLO
TAF
KFLO 012321Z 0200/0224 00000KT P6SM FEW060
     FM020700 00000KT 4SM BR SKC
      TEMPO 0210/0212 1SM BR BKN003
     FM021400 23004KT P6SM FEW045=

USA.gov is the U.S. government's official web portal to all federal, state and local government web resources and services.